SondeTracker

Meteorological Radiosondes Database

Operations

Sounding was ended - last measurement: 2022-12-06 14:09:23z

MAP
About Radiosonde

Number: U3140149

Launch Site: São Paulo (BR)

Type: RS41-SGP

AUX: NO

Frequency: 405.301 MHz

Max Speed: 106 km/h at 12688 m

Average Speed: 44.45 km/h

Max Altitude: 22666 m

Average Ascent Speed: 7.63 m/s

Average Descent Speed: 4.65 m/s

Status: UNKNOWN

Status Changes
Launch Site Type AUX Frequency Status Finder Landing Point Description Changes made by
APRS Statistics

Received Frames: 396

First Frame [UTC]: 2022-12-06 12:05:52z

Last Frame [UTC]: 2022-12-06 14:09:23z

Receivers: PU2MUS-12, PU2PAG, PU2YGG-11, PY2GN-4, PY2PE-11

Flight Time: 02:03:31 h

Distance From First Measurement: 60.49 km

Nearest City: Bragança Paulista (BR) [21.29 km]

Nearest Hunter: Raraujo07 [66.93 km]

Ground Altitude: 908 m

Distance from QTH: 0.00 km

APRS Data
Receiver Number Date/Time [UTC] φ λ Course [°] Speed [km/h] Altitude [m] Description
PY2PE-11U31401492022-12-06 14:09:23-23.0339-46.3537116561468Clb=-3.0m/s t=16.9C h=100.0% p=855.1hPa 405.301 MHz Type=RS41-SGP ser=U3140149 Radiosonde
PY2PE-11U31401492022-12-06 14:08:51-23.0318-46.3576112541561Clb=-2.7m/s t=16.7C h=95.5% p=845.9hPa 405.301 MHz Type=RS41-SGP ser=U3140149 Radiosonde
PY2PE-11U31401492022-12-06 14:08:20-23.0299-46.3618116571650Clb=-2.6m/s t=15.9C h=98.6% p=837.2hPa 405.301 MHz Type=RS41-SGP ser=U3140149 Radiosonde
PY2PE-11U31401492022-12-06 14:07:49-23.0283-46.3656118571730Clb=-2.5m/s t=15.6C h=97.9% p=829.5hPa 405.301 MHz Type=RS41-SGP ser=U3140149 Radiosonde
PY2PE-11U31401492022-12-06 14:07:18-23.0268-46.3698114591817Clb=-2.1m/s t=15.1C h=98.2% p=821.1hPa 405.301 MHz Type=RS41-SGP ser=U3140149 Radiosonde
PY2PE-11U31401492022-12-06 14:06:47-23.0252-46.374118561896Clb=-2.3m/s t=14.6C h=98.2% p=813.1hPa 405.301 MHz Type=RS41-SGP ser=U3140149 Radiosonde
PY2PE-11U31401492022-12-06 14:06:16-23.0234-46.378122501959Clb=-2.3m/s t=14.5C h=94.6% p=807.0hPa 405.301 MHz Type=RS41-SGP ser=U3140149 Radiosonde
PY2PE-11U31401492022-12-06 14:05:45-23.0217-46.382108522019Clb=-1.9m/s t=14.6C h=89.6% p=801.3hPa 405.301 MHz Type=RS41-SGP ser=U3140149 Radiosonde
PY2PE-11U31401492022-12-06 14:05:14-23.02-46.3859113562092Clb=-2.3m/s t=14.0C h=91.7% p=794.4hPa 405.301 MHz Type=RS41-SGP ser=U3140149 Radiosonde
PY2PE-11U31401492022-12-06 14:04:43-23.0182-46.3898120482164Clb=-2.6m/s t=13.7C h=90.4% p=787.8hPa 405.301 MHz Type=RS41-SGP ser=U3140149 Radiosonde
PY2PE-11U31401492022-12-06 14:04:12-23.0168-46.3935112432237Clb=-2.3m/s t=13.2C h=92.8% p=781.1hPa 405.301 MHz Type=RS41-SGP ser=U3140149 Radiosonde
PY2PE-11U31401492022-12-06 14:03:41-23.0154-46.3976118482306Clb=-2.3m/s t=12.8C h=93.1% p=774.9hPa 405.301 MHz Type=RS41-SGP ser=U3140149 Radiosonde
PY2PE-11U31401492022-12-06 14:03:10-23.0142-46.4013111542380Clb=-2.4m/s t=12.3C h=95.2% p=768.1hPa 405.301 MHz Type=RS41-SGP ser=U3140149 Radiosonde
PY2PE-11U31401492022-12-06 14:02:39-23.013-46.4047105372458Clb=-2.3m/s t=11.8C h=97.9% p=761.2hPa 405.301 MHz Type=RS41-SGP ser=U3140149 Radiosonde
PY2PE-11U31401492022-12-06 14:02:08-23.0125-46.40889412535Clb=-2.3m/s t=11.6C h=98.7% p=754.2hPa 405.301 MHz Type=RS41-SGP ser=U3140149 Radiosonde
PY2PE-11U31401492022-12-06 14:01:37-23.0123-46.411694482614Clb=-2.4m/s t=11.3C h=94.9% p=747.1hPa 405.301 MHz Type=RS41-SGP ser=U3140149 Radiosonde
PY2PE-11U31401492022-12-06 14:01:06-23.0121-46.41599432693Clb=-2.4m/s t=10.6C h=98.5% p=740.2hPa 405.301 MHz Type=RS41-SGP ser=U3140149 Radiosonde
PY2PE-11U31401492022-12-06 14:00:34-23.012-46.418499442768Clb=-2.0m/s t=10.5C h=97.7% p=733.6hPa 405.301 MHz Type=RS41-SGP ser=U3140149 Radiosonde
PY2PE-11U31401492022-12-06 14:00:14-23.0117-46.421795312842Clb=-2.8m/s t=10.5C h=93.5% p=727.2hPa 405.301 MHz Type=RS41-SGP ser=U3140149 Radiosonde
PY2PE-11U31401492022-12-06 13:59:32-23.0116-46.424882312921Clb=-2.4m/s t=10.5C h=91.2% p=720.5hPa 405.301 MHz Type=RS41-SGP ser=U3140149 Radiosonde
PY2PE-11U31401492022-12-06 13:59:01-23.0117-46.42898393002Clb=-2.2m/s t=10.4C h=87.3% p=713.5hPa 405.301 MHz Type=RS41-SGP ser=U3140149 Radiosonde
PY2PE-11U31401492022-12-06 13:58:30-23.0118-46.43187413082Clb=-2.5m/s t=9.8C h=89.2% p=706.7hPa 405.301 MHz Type=RS41-SGP ser=U3140149 Radiosonde
PY2PE-11U31401492022-12-06 13:57:59-23.0118-46.433984283162Clb=-2.6m/s t=9.2C h=90.1% p=699.8hPa 405.301 MHz Type=RS41-SGP ser=U3140149 Radiosonde
PY2PE-11U31401492022-12-06 13:57:28-23.0119-46.436790243253Clb=-2.8m/s t=8.9C h=91.0% p=692.3hPa 405.301 MHz Type=RS41-SGP ser=U3140149 Radiosonde
PY2PE-11U31401492022-12-06 13:56:57-23.0122-46.43972313342Clb=-3.0m/s t=8.9C h=86.6% p=685.0hPa 405.301 MHz Type=RS41-SGP ser=U3140149 Radiosonde
PY2PE-11U31401492022-12-06 13:56:26-23.0125-46.441567283435Clb=-3.2m/s t=8.5C h=80.0% p=677.2hPa 405.301 MHz Type=RS41-SGP ser=U3140149 Radiosonde
PY2PE-11U31401492022-12-06 13:55:55-23.0128-46.444187243532Clb=-3.0m/s t=7.8C h=83.8% p=669.3hPa 405.301 MHz Type=RS41-SGP ser=U3140149 Radiosonde
PY2PE-11U31401492022-12-06 13:55:24-23.0134-46.446164303634Clb=-3.6m/s t=7.3C h=84.3% p=661.2hPa 405.301 MHz Type=RS41-SGP ser=U3140149 Radiosonde
PY2PE-11U31401492022-12-06 13:54:53-23.014-46.448356303740Clb=-3.5m/s t=6.7C h=84.2% p=652.9hPa 405.301 MHz Type=RS41-SGP ser=U3140149 Radiosonde
PY2PE-11U31401492022-12-06 13:54:22-23.0145-46.450883283846Clb=-3.3m/s t=5.9C h=84.3% p=644.5hPa 405.301 MHz Type=RS41-SGP ser=U3140149 Radiosonde
PU2PAGU31401492022-12-06 13:54:00-23.0147-46.452473333914Clb=-3.2m/s p=639.3hPa t=5.4C h=86.0% 405.300MHz Type=RS41-SGP TxOff=7h24m rdzTTGOsonde
PY2PE-11U31401492022-12-06 13:53:50-23.015-46.453263263951Clb=-3.7m/s t=5.0C h=87.7% p=636.3hPa 405.301 MHz Type=RS41-SGP ser=U3140149 Radiosonde
PU2PAGU31401492022-12-06 13:53:47-23.0151-46.453364263958Clb=-3.6m/s p=635.8hPa t=5.0C h=87.6% 405.300MHz Type=RS41-SGP TxOff=7h24m rdzTTGOsonde
PU2PAGU31401492022-12-06 13:53:36-23.0153-46.45473223996Clb=-3.5m/s p=632.8hPa t=4.7C h=88.3% 405.300MHz Type=RS41-SGP TxOff=7h24m rdzTTGOsonde
PU2PAGU31401492022-12-06 13:53:26-23.0155-46.454672224030Clb=-3.3m/s p=630.3hPa t=4.4C h=89.9% 405.300MHz Type=RS41-SGP TxOff=7h25m rdzTTGOsonde
PY2PE-11U31401492022-12-06 13:53:19-23.0156-46.455188264057Clb=-3.1m/s t=4.1C h=91.2% p=628.0hPa 405.301 MHz Type=RS41-SGP ser=U3140149 Radiosonde
PU2PAGU31401492022-12-06 13:53:15-23.0156-46.455387264068Clb=-3.3m/s p=627.3hPa t=4.0C h=91.9% 405.300MHz Type=RS41-SGP TxOff=7h25m rdzTTGOsonde
PU2PAGU31401492022-12-06 13:53:05-23.0158-46.455974244102Clb=-3.4m/s p=624.6hPa t=3.8C h=92.6% 405.300MHz Type=RS41-SGP TxOff=7h25m rdzTTGOsonde
PU2PAGU31401492022-12-06 13:52:54-23.0159-46.456682264140Clb=-3.5m/s p=621.8hPa t=3.5C h=94.5% 405.300MHz Type=RS41-SGP TxOff=7h25m rdzTTGOsonde
PY2PE-11U31401492022-12-06 13:52:48-23.016-46.457174224164Clb=-3.3m/s t=3.3C h=95.1% p=619.9hPa 405.301 MHz Type=RS41-SGP ser=U3140149 Radiosonde
PU2PAGU31401492022-12-06 13:52:44-23.0161-46.457273224175Clb=-3.6m/s p=619.1hPa t=3.2C h=95.8% 405.300MHz Type=RS41-SGP TxOff=7h26m rdzTTGOsonde
PU2PAGU31401492022-12-06 13:52:33-23.0163-46.457965224213Clb=-3.5m/s p=616.3hPa t=3.0C h=95.3% 405.300MHz Type=RS41-SGP TxOff=7h26m rdzTTGOsonde
PU2PAGU31401492022-12-06 13:52:22-23.0166-46.458466224250Clb=-3.1m/s p=613.5hPa t=2.7C h=96.3% 405.300MHz Type=RS41-SGP TxOff=7h26m rdzTTGOsonde
PY2PE-11U31401492022-12-06 13:52:17-23.0167-46.458864204269Clb=-3.2m/s t=2.6C h=97.3% p=611.9hPa 405.301 MHz Type=RS41-SGP ser=U3140149 Radiosonde
PU2PAGU31401492022-12-06 13:52:11-23.0168-46.45967204285Clb=-3.0m/s p=610.8hPa t=2.6C h=96.3% 405.300MHz Type=RS41-SGP TxOff=7h26m rdzTTGOsonde
PU2PAGU31401492022-12-06 13:52:00-23.0172-46.459651284318Clb=-3.1m/s p=608.2hPa t=2.3C h=98.1% 405.300MHz Type=RS41-SGP TxOff=7h26m rdzTTGOsonde
PU2PAGU31401492022-12-06 13:51:49-23.0177-46.460367314351Clb=-2.9m/s p=605.9hPa t=2.2C h=98.7% 405.300MHz Type=RS41-SGP TxOff=7h27m rdzTTGOsonde
PY2PE-11U31401492022-12-06 13:51:46-23.0178-46.460666314363Clb=-3.4m/s t=2.1C h=98.1% p=604.9hPa 405.301 MHz Type=RS41-SGP ser=U3140149 Radiosonde
PU2PAGU31401492022-12-06 13:51:39-23.018-46.461164334383Clb=-3.3m/s p=603.4hPa t=2.3C h=93.1% 405.300MHz Type=RS41-SGP TxOff=7h27m rdzTTGOsonde
PU2PAGU31401492022-12-06 13:51:29-23.0185-46.46264334416Clb=-2.9m/s p=600.8hPa t=2.0C h=94.6% 405.300MHz Type=RS41-SGP TxOff=7h27m rdzTTGOsonde
PU2PAGU31401492022-12-06 13:51:17-23.0188-46.462980284448Clb=-2.8m/s p=598.5hPa t=2.0C h=91.3% 405.300MHz Type=RS41-SGP TxOff=7h27m rdzTTGOsonde
PY2PE-11U31401492022-12-06 13:51:15-23.0188-46.463177244457Clb=-2.9m/s t=2.0C h=90.0% p=597.9hPa 405.301 MHz Type=RS41-SGP ser=U3140149 Radiosonde
PU2PAGU31401492022-12-06 13:51:06-23.019-46.463658304480Clb=-2.9m/s p=596.3hPa t=1.7C h=91.7% 405.300MHz Type=RS41-SGP TxOff=7h27m rdzTTGOsonde
PU2PAGU31401492022-12-06 13:50:56-23.0194-46.464358314509Clb=-3.0m/s p=594.1hPa t=1.4C h=92.7% 405.300MHz Type=RS41-SGP TxOff=7h28m rdzTTGOsonde
PU2PAGU31401492022-12-06 13:50:45-23.0199-46.46559314542Clb=-3.1m/s p=591.6hPa t=1.0C h=94.9% 405.300MHz Type=RS41-SGP TxOff=7h28m rdzTTGOsonde
PY2PE-11U31401492022-12-06 13:50:44-23.02-46.465158314548Clb=-3.4m/s t=1.0C h=94.4% p=591.2hPa 405.301 MHz Type=RS41-SGP ser=U3140149 Radiosonde
PU2PAGU31401492022-12-06 13:50:34-23.0203-46.465866334575Clb=-3.0m/s p=589.0hPa t=0.8C h=96.2% 405.300MHz Type=RS41-SGP TxOff=7h28m rdzTTGOsonde
PU2PAGU31401492022-12-06 13:50:22-23.0206-46.466876264610Clb=-3.2m/s p=586.4hPa t=0.4C h=97.4% 405.300MHz Type=RS41-SGP TxOff=7h28m rdzTTGOsonde
PY2PE-11U31401492022-12-06 13:50:13-23.0208-46.467574314639Clb=-3.1m/s t=0.2C h=98.9% p=584.3hPa 405.301 MHz Type=RS41-SGP ser=U3140149 Radiosonde
PU2PAGU31401492022-12-06 13:50:11-23.0208-46.467676314642Clb=-2.6m/s p=584.2hPa t=0.2C h=98.7% 405.300MHz Type=RS41-SGP TxOff=7h28m rdzTTGOsonde
PU2PAGU31401492022-12-06 13:50:00-23.021-46.468355244671Clb=-2.8m/s p=582.0hPa t=0.1C h=97.3% 405.300MHz Type=RS41-SGP TxOff=7h28m rdzTTGOsonde
PU2PAGU31401492022-12-06 13:49:49-23.0215-46.469165394704Clb=-3.1m/s p=579.8hPa t=0.5C h=87.6% 405.300MHz Type=RS41-SGP TxOff=7h28m rdzTTGOsonde
PY2PE-11U31401492022-12-06 13:49:42-23.0218-46.469977354728Clb=-3.2m/s t=0.3C h=87.4% p=578.0hPa 405.301 MHz Type=RS41-SGP ser=U3140149 Radiosonde
PU2PAGU31401492022-12-06 13:49:38-23.0218-46.470278374738Clb=-2.9m/s p=577.4hPa t=0.3C h=87.9% 405.300MHz Type=RS41-SGP TxOff=7h28m rdzTTGOsonde
PU2PAGU31401492022-12-06 13:49:28-23.0222-46.471167414766Clb=-2.7m/s p=575.3hPa t=0.2C h=89.7% 405.300MHz Type=RS41-SGP TxOff=7h28m rdzTTGOsonde
PU2PAGU31401492022-12-06 13:49:18-23.0224-46.472183354794Clb=-2.7m/s p=573.3hPa t=0.1C h=85.8% 405.300MHz Type=RS41-SGP TxOff=7h29m rdzTTGOsonde
PY2PE-11U31401492022-12-06 13:49:11-23.0225-46.472982394816Clb=-2.8m/s t=0.1C h=82.1% p=571.7hPa 405.301 MHz Type=RS41-SGP ser=U3140149 Radiosonde
PU2PAGU31401492022-12-06 13:49:07-23.0225-46.473386374825Clb=-3.0m/s p=571.0hPa t=0.1C h=81.7% 405.300MHz Type=RS41-SGP TxOff=7h29m rdzTTGOsonde
PU2PAGU31401492022-12-06 13:48:56-23.0227-46.474271304855Clb=-3.0m/s p=569.0hPa t=0.1C h=79.7% 405.300MHz Type=RS41-SGP TxOff=7h29m rdzTTGOsonde
PU2PAGU31401492022-12-06 13:48:45-23.0231-46.475168354885Clb=-2.9m/s p=566.9hPa t=-0.0C h=78.8% 405.300MHz Type=RS41-SGP TxOff=7h29m rdzTTGOsonde
PY2PE-11U31401492022-12-06 13:48:40-23.0232-46.475774374901Clb=-2.9m/s t=-0.1C h=78.5% p=565.9hPa 405.301 MHz Type=RS41-SGP ser=U3140149 Radiosonde
PU2PAGU31401492022-12-06 13:48:34-23.0234-46.476278414915Clb=-2.7m/s p=564.8hPa t=-0.1C h=78.8% 405.300MHz Type=RS41-SGP TxOff=7h29m rdzTTGOsonde
PU2PAGU31401492022-12-06 13:48:24-23.0235-46.477285284941Clb=-2.6m/s p=562.9hPa t=-0.2C h=80.0% 405.300MHz Type=RS41-SGP TxOff=7h30m rdzTTGOsonde
PU2PAGU31401492022-12-06 13:48:13-23.0236-46.477974284971Clb=-2.4m/s p=561.0hPa t=-0.3C h=77.6% 405.300MHz Type=RS41-SGP TxOff=7h30m rdzTTGOsonde
PY2PE-11U31401492022-12-06 13:48:09-23.0237-46.478366284983Clb=-2.6m/s t=-0.4C h=77.7% p=560.0hPa 405.301 MHz Type=RS41-SGP ser=U3140149 Radiosonde
PU2PAGU31401492022-12-06 13:48:02-23.0239-46.478766284999Clb=-2.6m/s p=559.0hPa t=-0.5C h=77.6% 405.300MHz Type=RS41-SGP TxOff=7h30m rdzTTGOsonde
PU2PAGU31401492022-12-06 13:47:52-23.0242-46.479471285027Clb=-2.4m/s p=557.0hPa t=-0.7C h=78.8% 405.300MHz Type=RS41-SGP TxOff=7h30m rdzTTGOsonde
PU2PAGU31401492022-12-06 13:47:42-23.0243-46.480173265055Clb=-2.9m/s p=555.1hPa t=-0.8C h=78.0% 405.300MHz Type=RS41-SGP TxOff=7h30m rdzTTGOsonde
PY2PE-11U31401492022-12-06 13:47:38-23.0245-46.480559285069Clb=-3.2m/s t=-0.9C h=78.8% p=554.1hPa 405.301 MHz Type=RS41-SGP ser=U3140149 Radiosonde
PU2PAGU31401492022-12-06 13:47:32-23.0247-46.480860285084Clb=-3.0m/s p=553.0hPa t=-0.9C h=78.2% 405.300MHz Type=RS41-SGP TxOff=7h31m rdzTTGOsonde
PU2PAGU31401492022-12-06 13:47:22-23.025-46.481457285114Clb=-3.2m/s p=551.0hPa t=-1.1C h=79.0% 405.300MHz Type=RS41-SGP TxOff=7h31m rdzTTGOsonde
PU2PAGU31401492022-12-06 13:47:12-23.0254-46.482153265147Clb=-3.5m/s p=548.7hPa t=-1.4C h=80.1% 405.300MHz Type=RS41-SGP TxOff=7h31m rdzTTGOsonde
PY2PE-11U31401492022-12-06 13:47:07-23.0257-46.482347285163Clb=-3.1m/s t=-1.4C h=80.1% p=547.6hPa 405.301 MHz Type=RS41-SGP ser=U3140149 Radiosonde
PU2PAGU31401492022-12-06 13:47:01-23.0259-46.482647285179Clb=-3.0m/s p=546.5hPa t=-1.3C h=77.3% 405.300MHz Type=RS41-SGP TxOff=7h31m rdzTTGOsonde
PU2PAGU31401492022-12-06 13:46:51-23.0264-46.483457375209Clb=-3.1m/s p=544.4hPa t=-1.4C h=75.3% 405.300MHz Type=RS41-SGP TxOff=7h31m rdzTTGOsonde
PU2PAGU31401492022-12-06 13:46:41-23.027-46.484254415241Clb=-3.6m/s p=542.3hPa t=-1.5C h=73.0% 405.300MHz Type=RS41-SGP TxOff=7h32m rdzTTGOsonde
PY2PE-11U31401492022-12-06 13:46:36-23.0273-46.484763395260Clb=-3.5m/s t=-1.6C h=75.0% p=541.0hPa 405.301 MHz Type=RS41-SGP ser=U3140149 Radiosonde
PU2PAGU31401492022-12-06 13:46:31-23.0275-46.485169335274Clb=-3.6m/s p=540.0hPa t=-1.7C h=76.2% 405.300MHz Type=RS41-SGP TxOff=7h32m rdzTTGOsonde
PU2PAGU31401492022-12-06 13:46:20-23.028-46.485843355310Clb=-3.3m/s p=537.7hPa t=-1.9C h=76.5% 405.300MHz Type=RS41-SGP TxOff=7h32m rdzTTGOsonde
PU2PAGU31401492022-12-06 13:46:10-23.0288-46.486647435346Clb=-3.2m/s p=535.3hPa t=-2.1C h=77.3% 405.300MHz Type=RS41-SGP TxOff=7h32m rdzTTGOsonde
PY2PE-11U31401492022-12-06 13:46:05-23.0292-46.487144435365Clb=-3.2m/s t=-2.2C h=76.4% p=534.0hPa 405.301 MHz Type=RS41-SGP ser=U3140149 Radiosonde
PU2PAGU31401492022-12-06 13:45:58-23.0296-46.487651465382Clb=-3.3m/s p=532.8hPa t=-2.2C h=76.4% 405.300MHz Type=RS41-SGP TxOff=7h32m rdzTTGOsonde
PU2PAGU31401492022-12-06 13:45:48-23.0303-46.488547415414Clb=-3.0m/s p=530.7hPa t=-2.4C h=76.1% 405.300MHz Type=RS41-SGP TxOff=7h33m rdzTTGOsonde
PU2PAGU31401492022-12-06 13:45:38-23.0311-46.489450465447Clb=-3.3m/s p=528.5hPa t=-2.5C h=74.6% 405.300MHz Type=RS41-SGP TxOff=7h33m rdzTTGOsonde
PY2PE-11U31401492022-12-06 13:45:34-23.0315-46.489952465463Clb=-3.3m/s t=-2.6C h=75.2% p=527.5hPa 405.301 MHz Type=RS41-SGP ser=U3140149 Radiosonde
PU2PAGU31401492022-12-06 13:45:27-23.0319-46.490553485483Clb=-3.3m/s p=526.2hPa t=-2.8C h=76.1% 405.300MHz Type=RS41-SGP TxOff=7h33m rdzTTGOsonde
PU2PAGU31401492022-12-06 13:45:16-23.0328-46.491660505518Clb=-3.7m/s p=523.8hPa t=-3.0C h=78.0% 405.300MHz Type=RS41-SGP TxOff=7h33m rdzTTGOsonde
PU2PAGU31401492022-12-06 13:45:06-23.0333-46.492862485552Clb=-3.4m/s p=521.5hPa t=-3.3C h=79.1% 405.300MHz Type=RS41-SGP TxOff=7h33m rdzTTGOsonde
PY2PE-11U31401492022-12-06 13:45:03-23.0337-46.493454505569Clb=-3.3m/s t=-3.4C h=72.5% p=520.5hPa 405.301 MHz Type=RS41-SGP ser=U3140149 Radiosonde
PU2PAGU31401492022-12-06 13:44:55-23.0341-46.49450485588Clb=-3.5m/s p=519.2hPa t=-3.6C h=70.8% 405.300MHz Type=RS41-SGP TxOff=7h34m rdzTTGOsonde
PU2PAGU31401492022-12-06 13:44:45-23.035-46.49547415626Clb=-3.6m/s p=516.7hPa t=-4.0C h=77.9% 405.300MHz Type=RS41-SGP TxOff=7h34m rdzTTGOsonde
PU2PAGU31401492022-12-06 13:44:36-23.0355-46.495963375660Clb=-3.6m/s p=514.4hPa t=-4.2C h=74.5% 405.300MHz Type=RS41-SGP TxOff=7h34m rdzTTGOsonde
PY2PE-11U31401492022-12-06 13:44:34-23.0357-46.496264375674Clb=-3.6m/s t=-4.3C h=77.1% p=513.5hPa 405.301 MHz Type=RS41-SGP ser=U3140149 Radiosonde
PU2PAGU31401492022-12-06 13:44:24-23.0359-46.496868415697Clb=-4.2m/s p=512.0hPa t=-4.5C h=79.9% 405.300MHz Type=RS41-SGP TxOff=7h34m rdzTTGOsonde
PU2PAGU31401492022-12-06 13:44:15-23.0364-46.497962485735Clb=-3.9m/s p=509.7hPa t=-4.8C h=85.2% 405.300MHz Type=RS41-SGP TxOff=7h34m rdzTTGOsonde
PU2PAGU31401492022-12-06 13:44:03-23.0371-46.499156415774Clb=-3.9m/s p=507.1hPa t=-5.2C h=87.4% 405.300MHz Type=RS41-SGP TxOff=7h34m rdzTTGOsonde
PY2PE-11U31401492022-12-06 13:44:01-23.0374-46.499453395788Clb=-3.5m/s t=-5.3C h=87.9% p=506.2hPa 405.301 MHz Type=RS41-SGP ser=U3140149 Radiosonde
PU2PAGU31401492022-12-06 13:43:52-23.0378-46.554375814Clb=-4.1m/s p=504.6hPa t=-5.5C h=88.2% 405.300MHz Type=RS41-SGP TxOff=7h34m rdzTTGOsonde
PU2PAGU31401492022-12-06 13:43:41-23.0382-46.500970355853Clb=-3.6m/s p=502.1hPa t=-5.8C h=88.8% 405.300MHz Type=RS41-SGP TxOff=7h34m rdzTTGOsonde
PU2PAGU31401492022-12-06 13:43:30-23.0385-46.501973395892Clb=-3.5m/s p=499.6hPa t=-6.1C h=90.7% 405.300MHz Type=RS41-SGP TxOff=7h34m rdzTTGOsonde
PU2PAGU31401492022-12-06 13:43:19-23.0389-46.503274485931Clb=-3.7m/s p=497.1hPa t=-6.3C h=89.5% 405.300MHz Type=RS41-SGP TxOff=7h35m rdzTTGOsonde
PU2PAGU31401492022-12-06 13:43:09-23.0393-46.504566525966Clb=-3.6m/s p=494.9hPa t=-6.3C h=83.9% 405.300MHz Type=RS41-SGP TxOff=7h35m rdzTTGOsonde
PU2PAGU31401492022-12-06 13:42:59-23.04-46.505660415999Clb=-3.3m/s p=492.7hPa t=-6.4C h=77.4% 405.300MHz Type=RS41-SGP TxOff=7h35m rdzTTGOsonde
PU2PAGU31401492022-12-06 13:42:48-23.0405-46.506663416035Clb=-3.3m/s p=490.6hPa t=-6.6C h=78.8% 405.300MHz Type=RS41-SGP TxOff=7h35m rdzTTGOsonde
PU2PAGU31401492022-12-06 13:42:37-23.041-46.507666356069Clb=-3.3m/s p=488.5hPa t=-6.4C h=69.5% 405.300MHz Type=RS41-SGP TxOff=7h35m rdzTTGOsonde
PU2PAGU31401492022-12-06 13:42:27-23.0412-46.508678446101Clb=-3.2m/s p=486.5hPa t=-6.5C h=71.5% 405.300MHz Type=RS41-SGP TxOff=7h36m rdzTTGOsonde
PU2PAGU31401492022-12-06 13:42:16-23.0416-46.5172486138Clb=-3.8m/s p=484.2hPa t=-6.8C h=72.6% 405.300MHz Type=RS41-SGP TxOff=7h36m rdzTTGOsonde
PU2PAGU31401492022-12-06 13:42:05-23.0422-46.511360486175Clb=-3.4m/s p=481.9hPa t=-7.0C h=67.2% 405.300MHz Type=RS41-SGP TxOff=7h36m rdzTTGOsonde
PY2PE-11U31401492022-12-06 13:41:57-23.0427-46.512258336208Clb=-3.5m/s t=-7.3C h=67.2% p=479.8hPa 405.301 MHz Type=RS41-SGP ser=U3140149 Radiosonde
PU2PAGU31401492022-12-06 13:41:54-23.0428-46.512360336211Clb=-3.6m/s p=479.7hPa t=-7.4C h=67.1% 405.300MHz Type=RS41-SGP TxOff=7h36m rdzTTGOsonde
PU2PAGU31401492022-12-06 13:41:44-23.0431-46.513277416244Clb=-3.5m/s p=477.6hPa t=-7.6C h=66.0% 405.300MHz Type=RS41-SGP TxOff=7h36m rdzTTGOsonde
PU2PAGU31401492022-12-06 13:41:33-23.0436-46.514554446282Clb=-3.7m/s p=475.4hPa t=-7.9C h=63.4% 405.300MHz Type=RS41-SGP TxOff=7h37m rdzTTGOsonde
PY2PE-11U31401492022-12-06 13:41:26-23.0441-46.515267316313Clb=-3.3m/s t=-8.1C h=64.1% p=473.5hPa 405.301 MHz Type=RS41-SGP ser=U3140149 Radiosonde
PU2PAGU31401492022-12-06 13:41:22-23.0442-46.515473356320Clb=-3.5m/s p=473.1hPa t=-8.2C h=64.4% 405.300MHz Type=RS41-SGP TxOff=7h37m rdzTTGOsonde
PU2PAGU31401492022-12-06 13:41:11-23.0446-46.516662486359Clb=-3.5m/s p=470.8hPa t=-8.5C h=64.4% 405.300MHz Type=RS41-SGP TxOff=7h37m rdzTTGOsonde
PU2PAGU31401492022-12-06 13:41:01-23.0453-46.517657336397Clb=-3.6m/s p=468.4hPa t=-8.8C h=64.6% 405.300MHz Type=RS41-SGP TxOff=7h37m rdzTTGOsonde
PY2PE-11U31401492022-12-06 13:40:55-23.0455-46.518272396421Clb=-3.7m/s t=-9.0C h=65.1% p=467.0hPa 405.301 MHz Type=RS41-SGP ser=U3140149 Radiosonde
PU2PAGU31401492022-12-06 13:40:49-23.0457-46.518771446434Clb=-3.4m/s p=466.2hPa t=-9.2C h=65.8% 405.300MHz Type=RS41-SGP TxOff=7h38m rdzTTGOsonde
PU2PAGU31401492022-12-06 13:40:39-23.0463-46.519954486472Clb=-3.4m/s p=463.9hPa t=-9.5C h=67.5% 405.300MHz Type=RS41-SGP TxOff=7h38m rdzTTGOsonde
PU2PAGU31401492022-12-06 13:40:29-23.0469-46.520861336506Clb=-3.5m/s p=461.9hPa t=-9.9C h=70.1% 405.300MHz Type=RS41-SGP TxOff=7h38m rdzTTGOsonde
PY2PE-11U31401492022-12-06 13:40:24-23.0471-46.521371396526Clb=-3.3m/s t=-10.0C h=71.5% p=460.6hPa 405.301 MHz Type=RS41-SGP ser=U3140149 Radiosonde
PU2PAGU31401492022-12-06 13:40:21-23.0472-46.521970466544Clb=-3.6m/s p=459.6hPa t=-10.2C h=71.2% 405.300MHz Type=RS41-SGP TxOff=7h38m rdzTTGOsonde
PU2PAGU31401492022-12-06 13:40:10-23.0479-46.523152486583Clb=-3.8m/s p=457.3hPa t=-10.6C h=74.5% 405.300MHz Type=RS41-SGP TxOff=7h38m rdzTTGOsonde
PU2PAGU31401492022-12-06 13:39:56-23.0485-46.52469356618Clb=-3.8m/s p=455.2hPa t=-10.9C h=75.3% 405.300MHz Type=RS41-SGP TxOff=7h39m rdzTTGOsonde
PY2PE-11U31401492022-12-06 13:39:52-23.0487-46.524572436636Clb=-3.7m/s t=-11.0C h=76.3% p=454.1hPa 405.301 MHz Type=RS41-SGP ser=U3140149 Radiosonde
PU2PAGU31401492022-12-06 13:39:45-23.0489-46.525265526658Clb=-3.6m/s p=452.9hPa t=-11.2C h=78.4% 405.300MHz Type=RS41-SGP TxOff=7h39m rdzTTGOsonde
PU2PAGU31401492022-12-06 13:39:35-23.0495-46.526257356693Clb=-3.7m/s p=450.8hPa t=-11.6C h=79.7% 405.300MHz Type=RS41-SGP TxOff=7h39m rdzTTGOsonde
PU2PAGU31401492022-12-06 13:39:24-23.0499-46.527273466733Clb=-3.5m/s p=448.4hPa t=-11.8C h=75.2% 405.300MHz Type=RS41-SGP TxOff=7h39m rdzTTGOsonde
PY2PE-11U31401492022-12-06 13:39:21-23.0501-46.527764486748Clb=-3.8m/s t=-11.8C h=72.3% p=447.6hPa 405.301 MHz Type=RS41-SGP ser=U3140149 Radiosonde
PU2PAGU31401492022-12-06 13:39:13-23.0505-46.528555486773Clb=-3.9m/s p=446.2hPa t=-11.9C h=71.8% 405.300MHz Type=RS41-SGP TxOff=7h39m rdzTTGOsonde
PU2PAGU31401492022-12-06 13:39:02-23.0513-46.529452356813Clb=-3.3m/s p=443.8hPa t=-12.2C h=71.0% 405.300MHz Type=RS41-SGP TxOff=7h40m rdzTTGOsonde
PU2PAGU31401492022-12-06 13:38:52-23.0517-46.530373396848Clb=-3.5m/s p=441.8hPa t=-12.3C h=65.5% 405.300MHz Type=RS41-SGP TxOff=7h40m rdzTTGOsonde
PY2PE-11U31401492022-12-06 13:38:50-23.0518-46.530673416859Clb=-3.6m/s t=-12.3C h=63.7% p=441.2hPa 405.301 MHz Type=RS41-SGP ser=U3140149 Radiosonde
PU2PAGU31401492022-12-06 13:38:42-23.052-46.531463486885Clb=-3.9m/s p=439.8hPa t=-12.5C h=59.7% 405.300MHz Type=RS41-SGP TxOff=7h40m rdzTTGOsonde
PU2PAGU31401492022-12-06 13:38:32-23.0526-46.532360356920Clb=-3.3m/s p=437.7hPa t=-12.6C h=55.9% 405.300MHz Type=RS41-SGP TxOff=7h40m rdzTTGOsonde
PU2PAGU31401492022-12-06 13:38:21-23.053-46.533278356959Clb=-3.4m/s p=435.5hPa t=-12.7C h=54.3% 405.300MHz Type=RS41-SGP TxOff=7h40m rdzTTGOsonde
PY2PE-11U31401492022-12-06 13:38:19-23.053-46.533579396970Clb=-3.9m/s t=-12.8C h=54.6% p=434.9hPa 405.301 MHz Type=RS41-SGP ser=U3140149 Radiosonde
PU2PAGU31401492022-12-06 13:38:11-23.0532-46.534473486996Clb=-3.8m/s p=433.4hPa t=-13.0C h=61.5% 405.300MHz Type=RS41-SGP TxOff=7h40m rdzTTGOsonde
PU2PAGU31401492022-12-06 13:38:01-23.0538-46.535759467037Clb=-3.7m/s p=431.1hPa t=-13.3C h=68.1% 405.300MHz Type=RS41-SGP TxOff=7h40m rdzTTGOsonde
PU2PAGU31401492022-12-06 13:37:50-23.0542-46.536675337074Clb=-3.6m/s p=429.0hPa t=-13.7C h=65.2% 405.300MHz Type=RS41-SGP TxOff=7h40m rdzTTGOsonde
PY2PE-11U31401492022-12-06 13:37:48-23.0543-46.536979397084Clb=-3.7m/s t=-13.7C h=73.7% p=428.3hPa 405.301 MHz Type=RS41-SGP ser=U3140149 Radiosonde
PU2PAGU31401492022-12-06 13:37:39-23.0545-46.537870507115Clb=-3.6m/s p=426.7hPa t=-14.0C h=76.4% 405.300MHz Type=RS41-SGP TxOff=7h40m rdzTTGOsonde
PU2PAGU31401492022-12-06 13:37:29-23.055-46.538863337150Clb=-3.7m/s p=424.7hPa t=-14.4C h=79.6% 405.300MHz Type=RS41-SGP TxOff=7h40m rdzTTGOsonde
PU2PAGU31401492022-12-06 13:37:19-23.0552-46.539786337186Clb=-3.8m/s p=422.7hPa t=-14.4C h=79.4% 405.300MHz Type=RS41-SGP TxOff=7h41m rdzTTGOsonde
PY2PE-11U31401492022-12-06 13:37:17-23.0552-46.5486397197Clb=-3.7m/s t=-14.3C h=69.2% p=422.0hPa 405.301 MHz Type=RS41-SGP ser=U3140149 Radiosonde
PU2PAGU31401492022-12-06 13:37:08-23.0554-46.540970467224Clb=-3.3m/s p=420.6hPa t=-14.4C h=69.1% 405.300MHz Type=RS41-SGP TxOff=7h41m rdzTTGOsonde
PU2PAGU31401492022-12-06 13:36:58-23.0558-46.541869307259Clb=-3.3m/s p=418.8hPa t=-14.3C h=61.5% 405.300MHz Type=RS41-SGP TxOff=7h41m rdzTTGOsonde
PU2PAGU31401492022-12-06 13:36:47-23.056-46.542788317295Clb=-3.2m/s p=416.7hPa t=-14.3C h=61.6% 405.300MHz Type=RS41-SGP TxOff=7h41m rdzTTGOsonde
PY2PE-11U31401492022-12-06 13:36:46-23.056-46.542987337302Clb=-3.9m/s t=-14.3C h=60.1% p=416.3hPa 405.301 MHz Type=RS41-SGP ser=U3140149 Radiosonde
PU2PAGU31401492022-12-06 13:36:37-23.056-46.543790437330Clb=-3.7m/s p=414.9hPa t=-14.5C h=62.4% 405.300MHz Type=RS41-SGP TxOff=7h41m rdzTTGOsonde
PU2PAGU31401492022-12-06 13:36:26-23.0562-46.544966377366Clb=-3.5m/s p=412.9hPa t=-14.7C h=61.9% 405.300MHz Type=RS41-SGP TxOff=7h42m rdzTTGOsonde
PU2PAGU31401492022-12-06 13:36:16-23.0565-46.545691287399Clb=-2.9m/s p=411.0hPa t=-14.9C h=57.0% 405.300MHz Type=RS41-SGP TxOff=7h42m rdzTTGOsonde
PY2PE-11U31401492022-12-06 13:36:15-23.0565-46.545892317405Clb=-3.1m/s t=-15.0C h=57.2% p=410.7hPa 405.301 MHz Type=RS41-SGP ser=U3140149 Radiosonde
PU2PAGU31401492022-12-06 13:36:06-23.0565-46.546780437430Clb=-3.5m/s p=409.3hPa t=-15.1C h=53.3% 405.300MHz Type=RS41-SGP TxOff=7h42m rdzTTGOsonde
PU2PAGU31401492022-12-06 13:35:55-23.0569-46.547865357465Clb=-3.0m/s p=407.4hPa t=-15.4C h=43.0% 405.300MHz Type=RS41-SGP TxOff=7h42m rdzTTGOsonde
PU2PAGU31401492022-12-06 13:35:46-23.0572-46.548565307496Clb=-3.1m/s p=405.8hPa t=-15.7C h=42.6% 405.300MHz Type=RS41-SGP TxOff=7h42m rdzTTGOsonde
PY2PE-11U31401492022-12-06 13:35:44-23.0573-46.548763287502Clb=-2.9m/s t=-15.7C h=42.0% p=405.5hPa 405.301 MHz Type=RS41-SGP ser=U3140149 Radiosonde
PU2PAGU31401492022-12-06 13:35:34-23.0576-46.549359287529Clb=-3.2m/s p=404.0hPa t=-15.9C h=32.9% 405.300MHz Type=RS41-SGP TxOff=7h43m rdzTTGOsonde
PU2PAGU31401492022-12-06 13:35:24-23.0579-46.549981227560Clb=-2.9m/s p=402.3hPa t=-16.0C h=46.6% 405.300MHz Type=RS41-SGP TxOff=7h43m rdzTTGOsonde
PU2PAGU31401492022-12-06 13:35:14-23.058-46.550776357594Clb=-3.2m/s p=400.6hPa t=-16.1C h=49.7% 405.300MHz Type=RS41-SGP TxOff=7h43m rdzTTGOsonde
PY2PE-11U31401492022-12-06 13:35:13-23.0581-46.550872337597Clb=-2.9m/s t=-16.1C h=49.7% p=400.4hPa 405.301 MHz Type=RS41-SGP ser=U3140149 Radiosonde
PU2PAGU31401492022-12-06 13:35:03-23.0584-46.551866397628Clb=-3.0m/s p=398.8hPa t=-16.3C h=50.2% 405.300MHz Type=RS41-SGP TxOff=7h43m rdzTTGOsonde
PU2PAGU31401492022-12-06 13:34:52-23.0589-46.552753397660Clb=-3.0m/s p=397.1hPa t=-16.3C h=48.8% 405.300MHz Type=RS41-SGP TxOff=7h44m rdzTTGOsonde
PY2PE-11U31401492022-12-06 13:34:42-23.0595-46.553454227694Clb=-3.3m/s t=-16.4C h=43.8% p=395.3hPa 405.301 MHz Type=RS41-SGP ser=U3140149 Radiosonde
PU2PAGU31401492022-12-06 13:34:41-23.0595-46.553455247695Clb=-3.3m/s p=395.3hPa t=-16.4C h=43.8% 405.300MHz Type=RS41-SGP TxOff=7h44m rdzTTGOsonde
PU2PAGU31401492022-12-06 13:34:32-23.0597-46.55476317726Clb=-2.9m/s p=393.6hPa t=-16.5C h=42.7% 405.300MHz Type=RS41-SGP TxOff=7h44m rdzTTGOsonde
PU2PAGU31401492022-12-06 13:34:21-23.0601-46.555163397762Clb=-3.3m/s p=391.8hPa t=-16.4C h=53.1% 405.300MHz Type=RS41-SGP TxOff=7h44m rdzTTGOsonde
PY2PE-11U31401492022-12-06 13:34:11-23.0605-46.55656397795Clb=-3.2m/s t=-16.5C h=44.8% p=390.0hPa 405.301 MHz Type=RS41-SGP ser=U3140149 Radiosonde
PU2PAGU31401492022-12-06 13:34:09-23.0606-46.556155397798Clb=-3.6m/s p=390.0hPa t=-16.5C h=45.2% 405.300MHz Type=RS41-SGP TxOff=7h44m rdzTTGOsonde
PU2PAGU31401492022-12-06 13:33:59-23.0611-46.556750247832Clb=-3.6m/s p=388.1hPa t=-16.9C h=41.6% 405.300MHz Type=RS41-SGP TxOff=7h45m rdzTTGOsonde
PU2PAGU31401492022-12-06 13:33:48-23.0614-46.557476247868Clb=-3.3m/s p=386.2hPa t=-17.2C h=43.6% 405.300MHz Type=RS41-SGP TxOff=7h45m rdzTTGOsonde
PY2PE-11U31401492022-12-06 13:33:40-23.0615-46.558178307901Clb=-3.3m/s t=-17.6C h=43.1% p=384.5hPa 405.301 MHz Type=RS41-SGP ser=U3140149 Radiosonde
PU2PAGU31401492022-12-06 13:33:38-23.0616-46.558178317905Clb=-3.5m/s p=384.3hPa t=-17.6C h=42.6% 405.300MHz Type=RS41-SGP TxOff=7h45m rdzTTGOsonde
PU2PAGU31401492022-12-06 13:33:26-23.0618-46.559168357943Clb=-3.7m/s p=382.4hPa t=-17.9C h=41.2% 405.300MHz Type=RS41-SGP TxOff=7h45m rdzTTGOsonde
PU2PAGU31401492022-12-06 13:33:15-23.0622-46.5663357983Clb=-3.4m/s p=380.3hPa t=-18.3C h=39.8% 405.300MHz Type=RS41-SGP TxOff=7h45m rdzTTGOsonde
PY2PE-11U31401492022-12-06 13:33:09-23.0626-46.560762378013Clb=-3.8m/s t=-18.6C h=37.9% p=378.9hPa 405.301 MHz Type=RS41-SGP ser=U3140149 Radiosonde
PU2PAGU31401492022-12-06 13:33:04-23.0627-46.56165398024Clb=-4.0m/s p=378.2hPa t=-18.7C h=37.5% 405.300MHz Type=RS41-SGP TxOff=7h45m rdzTTGOsonde
PU2PAGU31401492022-12-06 13:32:54-23.0631-46.56280358068Clb=-3.8m/s p=376.1hPa t=-18.9C h=28.4% 405.300MHz Type=RS41-SGP TxOff=7h45m rdzTTGOsonde
PU2PAGU31401492022-12-06 13:32:42-23.0632-46.562983288110Clb=-4.3m/s p=374.0hPa t=-19.2C h=28.9% 405.300MHz Type=RS41-SGP TxOff=7h45m rdzTTGOsonde
PY2PE-11U31401492022-12-06 13:32:38-23.0632-46.563384268134Clb=-4.4m/s t=-19.3C h=27.7% p=372.7hPa 405.301 MHz Type=RS41-SGP ser=U3140149 Radiosonde
PU2PAGU31401492022-12-06 13:32:33-23.0633-46.563683268151Clb=-3.7m/s p=371.9hPa t=-19.5C h=29.7% 405.300MHz Type=RS41-SGP TxOff=7h45m rdzTTGOsonde
PU2PAGU31401492022-12-06 13:32:22-23.0634-46.564372248195Clb=-3.8m/s p=369.7hPa t=-19.8C h=46.8% 405.300MHz Type=RS41-SGP TxOff=7h45m rdzTTGOsonde
PU2PAGU31401492022-12-06 13:32:10-23.0637-46.56565248238Clb=-4.2m/s p=367.6hPa t=-20.0C h=69.8% 405.300MHz Type=RS41-SGP TxOff=7h46m rdzTTGOsonde
PY2PE-11U31401492022-12-06 13:32:07-23.0638-46.565361248258Clb=-4.2m/s t=-20.2C h=69.9% p=366.7hPa 405.301 MHz Type=RS41-SGP ser=U3140149 Radiosonde
PU2PAGU31401492022-12-06 13:31:59-23.064-46.565661268282Clb=-3.5m/s p=365.6hPa t=-20.4C h=69.3% 405.300MHz Type=RS41-SGP TxOff=7h46m rdzTTGOsonde
PU2YGG-11U31401492022-12-06 13:31:52-23.0644-46.566356288321Clb=-3.8m/s t=-20.7C h=68.2% p=363.6hPa 405.301 MHz Type=RS41-SGP ser=U3140149 Radiosonde
PU2PAGU31401492022-12-06 13:31:48-23.0644-46.566458308326Clb=-3.8m/s p=363.3hPa t=-20.7C h=66.8% 405.300MHz Type=RS41-SGP TxOff=7h46m rdzTTGOsonde
PU2PAGU31401492022-12-06 13:31:37-23.0648-46.56770228370Clb=-4.0m/s p=361.2hPa t=-21.0C h=67.7% 405.300MHz Type=RS41-SGP TxOff=7h46m rdzTTGOsonde
PY2PE-11U31401492022-12-06 13:31:36-23.0648-46.567279248382Clb=-4.1m/s t=-21.1C h=62.7% p=360.6hPa 405.301 MHz Type=RS41-SGP ser=U3140149 Radiosonde
PY2GN-4U31401492022-12-06 13:31:30-23.0649-46.567784268412Clb=-4.2m/s t=-273.0C h=-1.0% p=-1.0hPa 405.301 MHz Type=RS41 ser=U3140149 Radiosonde auto_rx v1.5.8
PU2PAGU31401492022-12-06 13:31:27-23.0649-46.567785288412Clb=-4.2m/s p=359.1hPa t=-21.2C h=52.3% 405.300MHz Type=RS41-SGP TxOff=7h47m rdzTTGOsonde
PU2PAGU31401492022-12-06 13:31:17-23.065-46.568578318452Clb=-3.6m/s p=357.2hPa t=-21.5C h=48.7% 405.300MHz Type=RS41-SGP TxOff=7h47m rdzTTGOsonde
PU2PAGU31401492022-12-06 13:31:07-23.0651-46.569383308494Clb=-4.2m/s p=355.1hPa t=-21.8C h=43.7% 405.300MHz Type=RS41-SGP TxOff=7h47m rdzTTGOsonde
PY2PE-11U31401492022-12-06 13:31:05-23.0652-46.569683228510Clb=-4.1m/s t=-21.9C h=45.8% p=354.3hPa 405.301 MHz Type=RS41-SGP ser=U3140149 Radiosonde
PU2PAGU31401492022-12-06 13:30:56-23.0652-46.5778208538Clb=-4.0m/s p=352.9hPa t=-22.0C h=41.6% 405.300MHz Type=RS41-SGP TxOff=7h47m rdzTTGOsonde
PU2YGG-11U31401492022-12-06 13:30:50-23.0653-46.570465178568Clb=-3.9m/s t=-22.3C h=38.7% p=351.5hPa 405.301 MHz Type=RS41-SGP ser=U3140149 Radiosonde
PU2PAGU31401492022-12-06 13:30:46-23.0654-46.570564208580Clb=-4.0m/s p=351.0hPa t=-22.4C h=39.1% 405.300MHz Type=RS41-SGP TxOff=7h47m rdzTTGOsonde
PU2PAGU31401492022-12-06 13:30:35-23.0658-46.571163358620Clb=-4.0m/s p=349.0hPa t=-22.8C h=38.5% 405.300MHz Type=RS41-SGP TxOff=7h48m rdzTTGOsonde
PY2PE-11U31401492022-12-06 13:30:34-23.0659-46.571468398632Clb=-4.3m/s t=-22.9C h=38.3% p=348.4hPa 405.301 MHz Type=RS41-SGP ser=U3140149 Radiosonde
PU2PAGU31401492022-12-06 13:30:24-23.066-46.572294318665Clb=-4.5m/s p=346.8hPa t=-23.2C h=37.4% 405.300MHz Type=RS41-SGP TxOff=7h48m rdzTTGOsonde
PU2PAGU31401492022-12-06 13:30:16-23.066-46.572865228709Clb=-4.1m/s p=344.9hPa t=-23.4C h=28.7% 405.300MHz Type=RS41-SGP TxOff=7h48m rdzTTGOsonde
PU2PAGU31401492022-12-06 13:30:07-23.0664-46.573455338757Clb=-4.1m/s p=342.7hPa t=-23.9C h=31.4% 405.300MHz Type=RS41-SGP TxOff=7h48m rdzTTGOsonde
PY2PE-11U31401492022-12-06 13:30:06-23.0665-46.573659358764Clb=-4.0m/s t=-23.9C h=32.8% p=342.3hPa 405.301 MHz Type=RS41-SGP ser=U3140149 Radiosonde
PU2PAGU31401492022-12-06 13:29:53-23.0669-46.574475378799Clb=-3.7m/s p=340.8hPa t=-24.1C h=40.3% 405.300MHz Type=RS41-SGP TxOff=7h48m rdzTTGOsonde
PU2YGG-11U31401492022-12-06 13:29:48-23.067-46.57583308827Clb=-3.7m/s t=-24.4C h=44.1% p=339.4hPa 405.301 MHz Type=RS41-SGP ser=U3140149 Radiosonde
PU2PAGU31401492022-12-06 13:29:42-23.067-46.575385248842Clb=-4.0m/s p=338.7hPa t=-24.6C h=49.5% 405.300MHz Type=RS41-SGP TxOff=7h49m rdzTTGOsonde
PU2PAGU31401492022-12-06 13:29:32-23.0674-46.575953358883Clb=-3.9m/s p=336.8hPa t=-24.9C h=61.9% 405.300MHz Type=RS41-SGP TxOff=7h49m rdzTTGOsonde
PU2PAGU31401492022-12-06 13:29:21-23.068-46.576860398926Clb=-3.5m/s p=334.8hPa t=-25.1C h=40.4% 405.300MHz Type=RS41-SGP TxOff=7h49m rdzTTGOsonde
PU2PAGU31401492022-12-06 13:29:11-23.0685-46.577652358963Clb=-3.6m/s p=333.1hPa t=-25.4C h=39.7% 405.300MHz Type=RS41-SGP TxOff=7h49m rdzTTGOsonde
PY2PE-11U31401492022-12-06 13:29:01-23.0692-46.578554439005Clb=-4.2m/s t=-25.8C h=43.3% p=331.2hPa 405.301 MHz Type=RS41-SGP ser=U3140149 Radiosonde
PU2PAGU31401492022-12-06 13:29:00-23.0692-46.578555449005Clb=-4.2m/s p=331.2hPa t=-25.8C h=43.3% 405.300MHz Type=RS41-SGP TxOff=7h49m rdzTTGOsonde
PU2PAGU31401492022-12-06 13:28:50-23.0697-46.579676419043Clb=-3.9m/s p=329.5hPa t=-26.1C h=50.6% 405.300MHz Type=RS41-SGP TxOff=7h50m rdzTTGOsonde
PU2YGG-11U31401492022-12-06 13:28:46-23.0698-46.580171339061Clb=-3.4m/s t=-26.3C h=52.6% p=328.8hPa 405.301 MHz Type=RS41-SGP ser=U3140149 Radiosonde
PU2PAGU31401492022-12-06 13:28:40-23.07-46.580560319079Clb=-3.6m/s p=327.8hPa t=-26.5C h=55.4% 405.300MHz Type=RS41-SGP TxOff=7h50m rdzTTGOsonde
PY2PE-11U31401492022-12-06 13:28:29-23.0705-46.581349359120Clb=-3.8m/s t=-26.8C h=61.2% p=326.0hPa 405.301 MHz Type=RS41-SGP ser=U3140149 Radiosonde
PU2PAGU31401492022-12-06 13:28:28-23.0705-46.581350379120Clb=-3.8m/s p=326.0hPa t=-26.8C h=61.2% 405.300MHz Type=RS41-SGP TxOff=7h50m rdzTTGOsonde
PU2PAGU31401492022-12-06 13:28:18-23.0712-46.582245449161Clb=-3.6m/s p=324.3hPa t=-27.1C h=67.1% 405.300MHz Type=RS41-SGP TxOff=7h50m rdzTTGOsonde
PU2PAGU31401492022-12-06 13:28:06-23.0722-46.583140469203Clb=-4.1m/s p=322.3hPa t=-27.5C h=67.8% 405.300MHz Type=RS41-SGP TxOff=7h50m rdzTTGOsonde
PY2PE-11U31401492022-12-06 13:27:58-23.073-46.583839489238Clb=-3.9m/s t=-27.7C h=58.3% p=320.8hPa 405.301 MHz Type=RS41-SGP ser=U3140149 Radiosonde
PU2PAGU31401492022-12-06 13:27:56-23.0732-46.58441529246Clb=-3.4m/s p=320.4hPa t=-27.7C h=52.7% 405.300MHz Type=RS41-SGP TxOff=7h51m rdzTTGOsonde
PU2PAGU31401492022-12-06 13:27:45-23.0743-46.584938529286Clb=-3.4m/s p=318.5hPa t=-27.9C h=34.5% 405.300MHz Type=RS41-SGP TxOff=7h51m rdzTTGOsonde
PU2YGG-11U31401492022-12-06 13:27:44-23.0745-46.585137509294Clb=-3.7m/s t=-28.0C h=31.6% p=318.3hPa 405.301 MHz Type=RS41-SGP ser=U3140149 Radiosonde
PU2PAGU31401492022-12-06 13:27:35-23.0753-46.585738449324Clb=-3.3m/s p=317.0hPa t=-28.1C h=25.0% 405.300MHz Type=RS41-SGP TxOff=7h51m rdzTTGOsonde
PY2PE-11U31401492022-12-06 13:27:27-23.076-46.586442399358Clb=-3.8m/s t=-28.4C h=22.3% p=315.5hPa 405.301 MHz Type=RS41-SGP ser=U3140149 Radiosonde
PU2PAGU31401492022-12-06 13:27:25-23.0761-46.586544419361Clb=-3.8m/s p=315.3hPa t=-28.5C h=22.4% 405.300MHz Type=RS41-SGP TxOff=7h51m rdzTTGOsonde
PU2PAGU31401492022-12-06 13:27:14-23.0768-46.587454419403Clb=-3.5m/s p=313.6hPa t=-28.8C h=20.3% 405.300MHz Type=RS41-SGP TxOff=7h51m rdzTTGOsonde
PU2PAGU31401492022-12-06 13:27:02-23.0775-46.588349419443Clb=-3.3m/s p=311.9hPa t=-29.1C h=14.1% 405.300MHz Type=RS41-SGP TxOff=7h51m rdzTTGOsonde
PY2PE-11U31401492022-12-06 13:26:56-23.078-46.588954439468Clb=-3.9m/s t=-29.3C h=13.3% p=310.8hPa 405.301 MHz Type=RS41-SGP ser=U3140149 Radiosonde
PU2PAGU31401492022-12-06 13:26:51-23.0782-46.589356509483Clb=-3.2m/s p=310.1hPa t=-29.4C h=12.0% 405.300MHz Type=RS41-SGP TxOff=7h51m rdzTTGOsonde
PU2PAGU31401492022-12-06 13:26:41-23.0792-46.590645639523Clb=-3.4m/s p=308.4hPa t=-29.8C h=6.8% 405.300MHz Type=RS41-SGP TxOff=7h51m rdzTTGOsonde
PU2PAGU31401492022-12-06 13:26:30-23.0806-46.591628529565Clb=-3.4m/s p=306.6hPa t=-29.9C h=6.2% 405.300MHz Type=RS41-SGP TxOff=7h51m rdzTTGOsonde
PY2PE-11U31401492022-12-06 13:26:25-23.0811-46.59237439584Clb=-3.5m/s t=-30.0C h=6.2% p=305.7hPa 405.301 MHz Type=RS41-SGP ser=U3140149 Radiosonde
PU2PAGU31401492022-12-06 13:26:19-23.0815-46.592448489603Clb=-3.7m/s p=304.9hPa t=-30.2C h=6.6% 405.300MHz Type=RS41-SGP TxOff=7h52m rdzTTGOsonde
PU2PAGU31401492022-12-06 13:26:10-23.0825-46.593439599640Clb=-3.5m/s p=303.4hPa t=-30.4C h=7.7% 405.300MHz Type=RS41-SGP TxOff=7h52m rdzTTGOsonde
PU2PAGU31401492022-12-06 13:25:59-23.0839-46.594640619681Clb=-3.7m/s p=301.5hPa t=-30.8C h=8.2% 405.300MHz Type=RS41-SGP TxOff=7h52m rdzTTGOsonde
PY2PE-11U31401492022-12-06 13:25:54-23.0845-46.595138639700Clb=-4.0m/s t=-31.0C h=8.3% p=300.8hPa 405.301 MHz Type=RS41-SGP ser=U3140149 Radiosonde
PU2PAGU31401492022-12-06 13:25:49-23.0851-46.595638659719Clb=-3.8m/s p=300.0hPa t=-31.2C h=8.1% 405.300MHz Type=RS41-SGP TxOff=7h52m rdzTTGOsonde
PU2PAGU31401492022-12-06 13:25:41-23.0865-46.596734659760Clb=-3.4m/s p=298.2hPa t=-31.6C h=8.0% 405.300MHz Type=RS41-SGP TxOff=7h52m rdzTTGOsonde
PU2PAGU31401492022-12-06 13:25:29-23.0879-46.597838709799Clb=-3.9m/s p=296.5hPa t=-31.9C h=8.0% 405.300MHz Type=RS41-SGP TxOff=7h53m rdzTTGOsonde
PY2PE-11U31401492022-12-06 13:25:26-23.0886-46.598328679818Clb=-3.9m/s t=-32.0C h=7.9% p=295.7hPa 405.301 MHz Type=RS41-SGP ser=U3140149 Radiosonde
PU2PAGU31401492022-12-06 13:25:19-23.0893-46.598730569837Clb=-3.4m/s p=295.0hPa t=-32.0C h=7.8% 405.300MHz Type=RS41-SGP TxOff=7h53m rdzTTGOsonde
PU2YGG-11U31401492022-12-06 13:25:08-23.0905-46.599841659876Clb=-3.7m/s t=-32.2C h=8.3% p=293.3hPa 405.301 MHz Type=RS41-SGP ser=U3140149 Radiosonde
PU2PAGU31401492022-12-06 13:25:07-23.0905-46.599843659876Clb=-3.7m/s p=293.3hPa t=-32.2C h=8.4% 405.300MHz Type=RS41-SGP TxOff=7h53m rdzTTGOsonde
PU2PAGU31401492022-12-06 13:24:57-23.0918-46.60144709914Clb=-3.7m/s p=291.8hPa t=-32.4C h=9.1% 405.300MHz Type=RS41-SGP TxOff=7h53m rdzTTGOsonde
PY2PE-11U31401492022-12-06 13:24:52-23.0925-46.601640769932Clb=-4.0m/s t=-32.5C h=9.7% p=291.0hPa 405.301 MHz Type=RS41-SGP ser=U3140149 Radiosonde
PU2PAGU31401492022-12-06 13:24:47-23.0932-46.602337809951Clb=-3.7m/s p=290.2hPa t=-32.7C h=10.0% 405.300MHz Type=RS41-SGP TxOff=7h53m rdzTTGOsonde
PU2PAGU31401492022-12-06 13:24:38-23.0949-46.603429769989Clb=-3.5m/s p=288.7hPa t=-33.0C h=10.9% 405.300MHz Type=RS41-SGP TxOff=7h54m rdzTTGOsonde
PU2PAGU31401492022-12-06 13:24:26-23.0965-46.6045386510029Clb=-3.8m/s p=287.0hPa t=-33.4C h=11.5% 405.300MHz Type=RS41-SGP TxOff=7h54m rdzTTGOsonde
PY2PE-11U31401492022-12-06 13:24:21-23.0972-46.605417010047Clb=-3.4m/s t=-33.5C h=12.2% p=286.3hPa 405.301 MHz Type=RS41-SGP ser=U3140149 Radiosonde
PU2PAGU31401492022-12-06 13:24:15-23.0981-46.6059428010069Clb=-3.9m/s p=285.4hPa t=-33.7C h=13.1% 405.300MHz Type=RS41-SGP TxOff=7h54m rdzTTGOsonde
PU2PAGU31401492022-12-06 13:24:07-23.0998-46.6072338710105Clb=-3.5m/s p=283.9hPa t=-34.0C h=14.2% 405.300MHz Type=RS41-SGP TxOff=7h54m rdzTTGOsonde
PU2YGG-11U31401492022-12-06 13:24:06-23.0998-46.6072318510105Clb=-3.5m/s t=-34.0C h=14.2% p=283.9hPa 405.301 MHz Type=RS41-SGP ser=U3140149 Radiosonde
PU2PAGU31401492022-12-06 13:23:55-23.1016-46.6083317010142Clb=-3.2m/s p=282.5hPa t=-34.5C h=15.6% 405.300MHz Type=RS41-SGP TxOff=7h54m rdzTTGOsonde
PY2PE-11U31401492022-12-06 13:23:50-23.1024-46.609427410164Clb=-3.5m/s t=-34.6C h=16.7% p=281.6hPa 405.301 MHz Type=RS41-SGP ser=U3140149 Radiosonde
PU2PAGU31401492022-12-06 13:23:44-23.1031-46.6097428710183Clb=-3.9m/s p=280.8hPa t=-34.7C h=17.9% 405.300MHz Type=RS41-SGP TxOff=7h55m rdzTTGOsonde
PU2YGG-11U31401492022-12-06 13:23:04-23.11-46.6151297410330Clb=-3.4m/s t=-36.1C h=20.4% p=274.9hPa 405.301 MHz Type=RS41-SGP ser=U3140149 Radiosonde
PU2YGG-11U31401492022-12-06 13:22:02-23.1196-46.623287010558Clb=-3.6m/s t=-38.3C h=24.7% p=265.9hPa 405.301 MHz Type=RS41-SGP ser=U3140149 Radiosonde
PU2YGG-11U31401492022-12-06 13:21:00-23.1291-46.6308467410795Clb=-4.0m/s t=-40.2C h=34.0% p=256.8hPa 405.301 MHz Type=RS41-SGP ser=U3140149 Radiosonde
PU2YGG-11U31401492022-12-06 13:19:58-23.1383-46.6387455611039Clb=-4.1m/s t=-42.3C h=36.7% p=247.9hPa 405.301 MHz Type=RS41-SGP ser=U3140149 Radiosonde
PU2YGG-11U31401492022-12-06 13:18:56-23.1472-46.6467436511285Clb=-4.2m/s t=-44.1C h=28.0% p=239.1hPa 405.301 MHz Type=RS41-SGP ser=U3140149 Radiosonde
PU2YGG-11U31401492022-12-06 13:18:24-23.1516-46.6507378911401Clb=-4.1m/s t=-45.1C h=29.9% p=234.9hPa 405.301 MHz Type=RS41-SGP ser=U3140149 Radiosonde
PU2YGG-11U31401492022-12-06 13:17:22-23.1614-46.6587346911654Clb=-4.0m/s t=-47.5C h=37.8% p=226.2hPa 405.301 MHz Type=RS41-SGP ser=U3140149 Radiosonde
PU2YGG-11U31401492022-12-06 13:16:20-23.1713-46.6668437811908Clb=-4.0m/s t=-49.7C h=22.6% p=217.6hPa 405.301 MHz Type=RS41-SGP ser=U3140149 Radiosonde
PU2YGG-11U31401492022-12-06 13:15:18-23.1852-46.6774279812231Clb=-4.4m/s t=-52.2C h=17.7% p=207.3hPa 405.301 MHz Type=RS41-SGP ser=U3140149 Radiosonde
PU2YGG-11U31401492022-12-06 13:14:16-23.1946-46.683219412428Clb=-4.0m/s t=-53.6C h=19.3% p=201.0hPa 405.301 MHz Type=RS41-SGP ser=U3140149 Radiosonde
PU2YGG-11U31401492022-12-06 13:13:14-23.207-46.68942310612688Clb=-4.4m/s t=-55.2C h=18.8% p=193.0hPa 405.301 MHz Type=RS41-SGP ser=U3140149 Radiosonde
PU2YGG-11U31401492022-12-06 13:12:12-23.2198-46.69652210612967Clb=-4.4m/s t=-57.1C h=15.1% p=184.7hPa 405.301 MHz Type=RS41-SGP ser=U3140149 Radiosonde
PU2YGG-11U31401492022-12-06 13:11:10-23.2329-46.7031169113246Clb=-3.9m/s t=-59.5C h=19.6% p=176.8hPa 405.301 MHz Type=RS41-SGP ser=U3140149 Radiosonde
PU2YGG-11U31401492022-12-06 13:10:38-23.2389-46.70633210013385Clb=-4.4m/s t=-60.6C h=22.3% p=173.1hPa 405.301 MHz Type=RS41-SGP ser=U3140149 Radiosonde
PU2YGG-11U31401492022-12-06 13:10:08-23.246-46.70997613527Clb=-5.3m/s t=-61.0C h=18.2% p=169.1hPa 405.301 MHz Type=RS41-SGP ser=U3140149 Radiosonde
PU2YGG-11U31401492022-12-06 13:09:36-23.252-46.7109149313667Clb=-4.4m/s t=-61.8C h=15.0% p=165.4hPa 405.301 MHz Type=RS41-SGP ser=U3140149 Radiosonde
PU2YGG-11U31401492022-12-06 13:08:34-23.2625-46.7133565713960Clb=-4.6m/s t=-63.0C h=10.4% p=157.7hPa 405.301 MHz Type=RS41-SGP ser=U3140149 Radiosonde
PU2MUS-12U31401492022-12-06 13:07:38-23.271-46.7153576314223Clb=-4.7m/s t=-63.7C h=10.5% p=151.1hPa 405.301 MHz Type=RS41-SGP ser=U3140149 Radiosonde
PU2YGG-11U31401492022-12-06 13:07:32-23.2718-46.7151215414250Clb=-4.4m/s t=-63.9C h=10.8% p=150.4hPa 405.301 MHz Type=RS41-SGP ser=U3140149 Radiosonde
PU2YGG-11U31401492022-12-06 13:06:30-23.2835-46.71623538114588Clb=-4.8m/s t=-66.6C h=12.5% p=142.2hPa 405.301 MHz Type=RS41-SGP ser=U3140149 Radiosonde
PU2YGG-11U31401492022-12-06 13:05:28-23.2932-46.71533488314872Clb=-4.8m/s t=-68.9C h=13.8% p=135.6hPa 405.301 MHz Type=RS41-SGP ser=U3140149 Radiosonde
PU2YGG-11U31401492022-12-06 13:04:26-23.3018-46.71223366315194Clb=-5.4m/s t=-70.7C h=-1.0% p=128.6hPa 405.301 MHz Type=RS41-SGP ser=U3140149 Radiosonde
PU2MUS-12U31401492022-12-06 13:03:30-23.3065-46.70873435215508Clb=-5.6m/s t=-71.7C h=13.6% p=122.0hPa 405.301 MHz Type=RS41-SGP ser=U3140149 Radiosonde
PU2YGG-11U31401492022-12-06 13:03:24-23.3075-46.70813166115548Clb=-4.8m/s t=-71.8C h=-1.0% p=121.1hPa 405.301 MHz Type=RS41-SGP ser=U3140149 Radiosonde
PU2YGG-11U31401492022-12-06 13:02:22-23.3148-46.70163008015900Clb=-5.9m/s t=-72.6C h=-1.0% p=-1.0hPa 405.301 MHz Type=RS41-SGP ser=U3140149 Radiosonde
PU2YGG-11U31401492022-12-06 13:00:48-23.325-46.68682988716438Clb=-5.9m/s t=-74.0C h=-1.0% p=-1.0hPa 405.301 MHz Type=RS41-SGP ser=U3140149 Radiosonde
PU2MUS-12U31401492022-12-06 12:57:48-23.338-46.64942617617541Clb=-6.9m/s t=-76.4C h=9.9% p=86.2hPa 405.301 MHz Type=RS41-SGP ser=U3140149 Radiosonde
PU2YGG-11U31401492022-12-06 12:57:42-23.3384-46.64652699617635Clb=-7.0m/s t=-273.0C h=-1.0% p=-1.0hPa 405.301 MHz Type=RS41-SGP ser=U3140149 Radiosonde
PU2YGG-11U31401492022-12-06 12:56:40-23.3414-46.63172699118163Clb=-7.0m/s t=-273.0C h=-1.0% p=-1.0hPa 405.301 MHz Type=RS41-SGP ser=U3140149 Radiosonde
PU2MUS-12U31401492022-12-06 12:55:44-23.3421-46.62612907218365Clb=-6.3m/s t=-74.2C h=7.1% p=74.8hPa 405.301 MHz Type=RS41-SGP ser=U3140149 Radiosonde
PU2YGG-11U31401492022-12-06 12:55:38-23.3421-46.62392486718431Clb=-6.6m/s t=-273.0C h=-1.0% p=-1.0hPa 405.301 MHz Type=RS41-SGP ser=U3140149 Radiosonde
PU2YGG-11U31401492022-12-06 12:54:36-23.342-46.61362735718820Clb=-7.0m/s t=-273.0C h=-1.0% p=-1.0hPa 405.301 MHz Type=RS41 ser=U3140149 Radiosonde
PU2PAGU31401492022-12-06 12:54:34-23.3425-46.57022554822154Clb=-10.4m/s p=39.9hPa t=-63.5C h=2.3% 405.300MHz Type=RS41-SGP rdzTTGOsonde
PU2PAGU31401492022-12-06 12:54:16-23.342-46.56892673522279Clb=-12.0m/s p=39.2hPa t=-63.0C h=2.1% 405.300MHz Type=RS41-SGP rdzTTGOsonde
PU2PAGU31401492022-12-06 12:53:59-23.3418-46.56792495922403Clb=-14.0m/s p=38.3hPa t=-63.0C h=2.1% 405.300MHz Type=RS41-SGP rdzTTGOsonde
PY2PE-11U31401492022-12-06 12:53:48-23.3416-46.5672694122502Clb=-14.2m/s t=-63.5C h=2.1% p=37.8hPa 405.301 MHz Type=RS41-SGP ser=U3140149 Radiosonde
PU2PAGU31401492022-12-06 12:53:39-23.3416-46.56662753922556Clb=-12.8m/s p=37.4hPa t=-63.2C h=1.9% 405.300MHz Type=RS41-SGP rdzTTGOsonde
PU2PAGU31401492022-12-06 12:53:20-23.3414-46.56552603522666Clb=8.9m/s p=36.7hPa t=-62.2C h=1.8% 405.300MHz Type=RS41-SGP rdzTTGOsonde
PU2MUS-12U31401492022-12-06 12:53:08-23.3439-46.60122775019481Clb=-8.5m/s t=-71.0C h=-1.0% p=61.9hPa 405.301 MHz Type=RS41-SGP ser=U3140149 Radiosonde
PU2PAGU31401492022-12-06 12:53:03-23.3414-46.56462733022595Clb=12.9m/s p=37.1hPa t=-63.2C h=1.9% 405.300MHz Type=RS41-SGP rdzTTGOsonde
PY2PE-11U31401492022-12-06 12:52:53-23.3411-46.56362466122531Clb=7.6m/s t=-63.5C h=1.9% p=37.5hPa 405.301 MHz Type=RS41-SGP ser=U3140149 Radiosonde
PU2PAGU31401492022-12-06 12:52:40-23.341-46.5632634822501Clb=6.4m/s p=37.7hPa t=-63.3C h=2.2% 405.300MHz Type=RS41-SGP rdzTTGOsonde
PU2PAGU31401492022-12-06 12:52:11-23.3405-46.56132664822402Clb=6.4m/s p=38.3hPa t=-63.2C h=2.0% 405.300MHz Type=RS41-SGP rdzTTGOsonde
PU2MUS-12U31401492022-12-06 12:52:06-23.3419-46.59462782220054Clb=-8.9m/s t=-273.0C h=-1.0% p=-1.0hPa 405.301 MHz Type=RS41 ser=U3140149 Radiosonde
PY2PE-11U31401492022-12-06 12:51:46-23.3402-46.56012574122310Clb=5.9m/s t=-63.0C h=1.8% p=38.9hPa 405.301 MHz Type=RS41-SGP ser=U3140149 Radiosonde
PU2PAGU31401492022-12-06 12:51:43-23.3402-46.562644422303Clb=8.1m/s p=38.9hPa t=-63.0C h=2.0% 405.300MHz Type=RS41-SGP rdzTTGOsonde
PU2PAGU31401492022-12-06 12:51:23-23.34-46.55892605222223Clb=5.3m/s p=39.4hPa t=-63.4C h=2.0% 405.300MHz Type=RS41-SGP rdzTTGOsonde
PU2PAGU31401492022-12-06 12:51:01-23.3397-46.55722645622128Clb=7.8m/s p=40.0hPa t=-63.7C h=2.2% 405.300MHz Type=RS41-SGP rdzTTGOsonde
PY2PE-11U31401492022-12-06 12:50:49-23.3396-46.55592765922061Clb=5.4m/s t=-63.5C h=2.1% p=40.5hPa 405.301 MHz Type=RS41-SGP ser=U3140149 Radiosonde
PU2PAGU31401492022-12-06 12:50:42-23.3397-46.55552745222035Clb=6.6m/s p=40.6hPa t=-63.3C h=2.1% 405.300MHz Type=RS41-SGP rdzTTGOsonde
PU2PAGU31401492022-12-06 12:50:20-23.3395-46.55422744421957Clb=7.6m/s p=41.2hPa t=-63.1C h=2.3% 405.300MHz Type=RS41-SGP rdzTTGOsonde
PU2PAGU31401492022-12-06 12:49:57-23.3396-46.55312473121868Clb=8.0m/s p=41.8hPa t=-63.4C h=2.0% 405.300MHz Type=RS41-SGP rdzTTGOsonde
PU2PAGU31401492022-12-06 12:49:32-23.3395-46.55182634321756Clb=8.9m/s p=42.5hPa t=-63.7C h=2.4% 405.300MHz Type=RS41-SGP rdzTTGOsonde
PU2PAGU31401492022-12-06 12:49:07-23.3394-46.55052734321670Clb=8.5m/s p=43.1hPa t=-63.1C h=2.4% 405.300MHz Type=RS41-SGP rdzTTGOsonde
PU2PAGU31401492022-12-06 12:48:42-23.3396-46.54892884421566Clb=9.0m/s p=43.8hPa t=-62.9C h=2.4% 405.300MHz Type=RS41-SGP rdzTTGOsonde
PY2PE-11U31401492022-12-06 12:48:39-23.3397-46.54862794821543Clb=6.3m/s t=-62.9C h=2.2% p=44.0hPa 405.301 MHz Type=RS41-SGP ser=U3140149 Radiosonde
PU2PAGU31401492022-12-06 12:48:08-23.3399-46.54712773721438Clb=5.7m/s p=44.8hPa t=-63.9C h=2.5% 405.300MHz Type=RS41-SGP rdzTTGOsonde
PY2PE-11U31401492022-12-06 12:47:33-23.3399-46.54532704321303Clb=7.5m/s t=-64.3C h=2.6% p=45.8hPa 405.301 MHz Type=RS41-SGP ser=U3140149 Radiosonde
PU2PAGU31401492022-12-06 12:47:16-23.34-46.54452773721245Clb=8.5m/s p=46.2hPa t=-64.2C h=2.5% 405.300MHz Type=RS41-SGP rdzTTGOsonde
PU2PAGU31401492022-12-06 12:46:46-23.3401-46.54252814121113Clb=7.8m/s p=47.2hPa t=-65.0C h=2.8% 405.300MHz Type=RS41-SGP rdzTTGOsonde
PY2PE-11U31401492022-12-06 12:46:34-23.3399-46.54162484821052Clb=11.6m/s t=-65.6C h=3.0% p=47.7hPa 405.301 MHz Type=RS41-SGP ser=U3140149 Radiosonde
PU2PAGU31401492022-12-06 12:46:13-23.3396-46.53982604820935Clb=9.4m/s p=48.3hPa t=-65.4C h=3.1% 405.300MHz Type=RS41-SGP rdzTTGOsonde
PU2PAGU31401492022-12-06 12:45:51-23.3395-46.53912704620888Clb=11.6m/s p=49.0hPa t=-65.9C h=3.2% 405.300MHz Type=RS41-SGP rdzTTGOsonde
PY2PE-11U31401492022-12-06 12:45:36-23.3394-46.53782675220819Clb=4.0m/s t=-66.3C h=3.3% p=49.5hPa 405.301 MHz Type=RS41-SGP ser=U3140149 Radiosonde
PU2PAGU31401492022-12-06 12:45:13-23.3394-46.53662724420752Clb=6.0m/s p=50.1hPa t=-66.5C h=3.4% 405.300MHz Type=RS41-SGP rdzTTGOsonde
PU2PAGU31401492022-12-06 12:44:47-23.3395-46.53522833720663Clb=8.9m/s p=50.8hPa t=-66.8C h=3.6% 405.300MHz Type=RS41-SGP rdzTTGOsonde
PY2PE-11U31401492022-12-06 12:44:30-23.3395-46.53422624320597Clb=8.1m/s t=-66.6C h=3.8% p=51.3hPa 405.301 MHz Type=RS41-SGP ser=U3140149 Radiosonde
PU2PAGU31401492022-12-06 12:44:16-23.3395-46.53352743720558Clb=4.5m/s p=51.7hPa t=-66.3C h=4.0% 405.300MHz Type=RS41-SGP rdzTTGOsonde
PU2PAGU31401492022-12-06 12:43:59-23.3398-46.5312795420403Clb=7.6m/s p=53.0hPa t=-65.7C h=4.0% 405.300MHz Type=RS41-SGP rdzTTGOsonde
PY2PE-11U31401492022-12-06 12:43:58-23.3398-46.53062785620379Clb=5.2m/s t=-65.7C h=4.0% p=53.2hPa 405.301 MHz Type=RS41-SGP ser=U3140149 Radiosonde
PU2PAGU31401492022-12-06 12:43:52-23.34-46.52942794420307Clb=9.7m/s p=53.9hPa t=-65.8C h=4.4% 405.300MHz Type=RS41-SGP rdzTTGOsonde
PU2PAGU31401492022-12-06 12:43:51-23.3404-46.52792983520219Clb=7.6m/s p=54.7hPa t=-66.1C h=4.9% 405.300MHz Type=RS41-SGP rdzTTGOsonde
PY2PE-11U31401492022-12-06 12:43:50-23.3407-46.52712783920153Clb=10.6m/s t=-65.8C h=4.7% p=55.3hPa 405.301 MHz Type=RS41-SGP ser=U3140149 Radiosonde
PU2PAGU31401492022-12-06 12:43:49-23.3409-46.52552831720012Clb=6.3m/s p=56.6hPa t=-67.1C h=5.7% 405.300MHz Type=RS41-SGP rdzTTGOsonde
PU2PAGU31401492022-12-06 12:43:48-23.3407-46.52472393319930Clb=7.9m/s p=57.4hPa t=-67.1C h=5.9% 405.300MHz Type=RS41-SGP rdzTTGOsonde
PU2PAGU31401492022-12-06 12:43:44-23.3404-46.52392473519847Clb=10.9m/s p=58.2hPa t=-68.0C h=6.3% 405.300MHz Type=RS41-SGP rdzTTGOsonde
PU2PAGU31401492022-12-06 12:43:40-23.3398-46.52292484319773Clb=5.5m/s p=58.9hPa t=-68.9C h=7.1% 405.300MHz Type=RS41-SGP rdzTTGOsonde
PY2PE-11U31401492022-12-06 12:43:34-23.3392-46.52172454419696Clb=5.4m/s t=-69.1C h=6.9% p=59.6hPa 405.301 MHz Type=RS41-SGP ser=U3140149 Radiosonde
PU2PAGU31401492022-12-06 12:43:21-23.3388-46.51852855619527Clb=9.3m/s p=61.3hPa t=-71.6C h=8.6% 405.300MHz Type=RS41-SGP rdzTTGOsonde
PY2PE-11U31401492022-12-06 12:43:17-23.3392-46.51752894819464Clb=7.0m/s t=-72.1C h=9.5% p=62.0hPa 405.301 MHz Type=RS41-SGP ser=U3140149 Radiosonde
PU2PAGU31401492022-12-06 12:43:12-23.3393-46.5172935619441Clb=9.6m/s p=62.2hPa t=-71.9C h=9.5% 405.300MHz Type=RS41-SGP rdzTTGOsonde
PU2PAGU31401492022-12-06 12:43:02-23.3396-46.51562834619366Clb=8.5m/s p=63.0hPa t=-71.3C h=9.5% 405.300MHz Type=RS41-SGP rdzTTGOsonde
PU2PAGU31401492022-12-06 12:42:46-23.3399-46.5142745619289Clb=6.7m/s p=63.9hPa t=-70.9C h=8.5% 405.300MHz Type=RS41-SGP rdzTTGOsonde
PY2PE-11U31401492022-12-06 12:42:36-23.3401-46.51312855619238Clb=4.6m/s t=-71.6C h=9.2% p=64.4hPa 405.301 MHz Type=RS41-SGP ser=U3140149 Radiosonde
PU2PAGU31401492022-12-06 12:42:29-23.3402-46.51242726719209Clb=6.0m/s p=64.8hPa t=-72.5C h=9.7% 405.300MHz Type=RS41-SGP rdzTTGOsonde
PU2MUS-12U31401492022-12-06 12:40:12-23.3402-46.51222696719200Clb=10.6m/s t=-72.6C h=9.6% p=64.8hPa 405.301 MHz Type=RS41-SGP ser=U3140149 Radiosonde
PU2PAGU31401492022-12-06 12:39:59-23.3475-46.46462767017056Clb=11.0m/s p=93.6hPa t=-75.1C h=12.7% 405.300MHz Type=RS41-SGP rdzTTGOsonde
PU2PAGU31401492022-12-06 12:39:39-23.3485-46.46252855416942Clb=8.2m/s p=95.5hPa t=-75.3C h=14.1% 405.300MHz Type=RS41-SGP rdzTTGOsonde
PY2PE-11U31401492022-12-06 12:39:27-23.349-46.46113078516887Clb=14.6m/s t=-75.4C h=13.4% p=96.4hPa 405.301 MHz Type=RS41-SGP ser=U3140149 Radiosonde
PU2PAGU31401492022-12-06 12:39:14-23.3494-46.46053226116846Clb=5.3m/s p=97.1hPa t=-75.2C h=14.6% 405.300MHz Type=RS41-SGP rdzTTGOsonde
PU2MUS-12U31401492022-12-06 12:35:32-23.35-46.45942948516790Clb=10.1m/s t=-74.9C h=13.5% p=98.1hPa 405.301 MHz Type=RS41-SGP ser=U3140149 Radiosonde
PU2PAGU31401492022-12-06 12:35:10-23.3609-46.44293135415876Clb=7.5m/s p=114.5hPa t=-72.5C h=12.3% 405.300MHz Type=RS41-SGP rdzTTGOsonde
PU2PAGU31401492022-12-06 12:34:31-23.3621-46.44153064815774Clb=9.6m/s p=116.5hPa t=-72.3C h=12.8% 405.300MHz Type=RS41-SGP rdzTTGOsonde
PU2MUS-12U31401492022-12-06 12:33:28-23.3631-46.44083255015710Clb=15.1m/s t=-72.3C h=12.4% p=117.8hPa 405.301 MHz Type=RS41-SGP ser=U3140149 Radiosonde
PY2PE-11U31401492022-12-06 12:33:16-23.3655-46.43923324315492Clb=12.2m/s t=-71.7C h=11.9% p=122.3hPa 405.301 MHz Type=RS41-SGP ser=U3140149 Radiosonde
PU2PAGU31401492022-12-06 12:33:06-23.3657-46.43913503315471Clb=8.9m/s p=122.8hPa t=-71.5C h=12.1% 405.300MHz Type=RS41-SGP rdzTTGOsonde
PU2MUS-12U31401492022-12-06 12:32:26-23.368-46.43833403915186Clb=12.4m/s t=-69.4C h=11.1% p=128.9hPa 405.301 MHz Type=RS41-SGP ser=U3140149 Radiosonde
PU2MUS-12U31401492022-12-06 12:31:24-23.3762-46.436174414674Clb=10.8m/s t=-67.2C h=11.3% p=140.2hPa 405.301 MHz Type=RS41-SGP ser=U3140149 Radiosonde
PU2MUS-12U31401492022-12-06 12:30:22-23.3871-46.4378156714153Clb=10.5m/s t=-63.7C h=12.1% p=152.7hPa 405.301 MHz Type=RS41-SGP ser=U3140149 Radiosonde
PU2MUS-12U31401492022-12-06 12:29:50-23.3914-46.4398155413899Clb=7.6m/s t=-62.3C h=-1.0% p=-1.0hPa 405.301 MHz Type=RS41-SGP ser=U3140149 Radiosonde
PU2PAGU31401492022-12-06 12:29:31-23.4786-46.4986259810238Clb=7.3m/s p=278.3hPa t=-35.1C h=14.6% 405.300MHz Type=RS41-SGP rdzTTGOsonde
PU2PAGU31401492022-12-06 12:29:09-23.4803-46.4999388110164Clb=8.7m/s p=281.3hPa t=-34.5C h=13.1% 405.300MHz Type=RS41-SGP rdzTTGOsonde
PY2PE-11U31401492022-12-06 12:28:46-23.4822-46.5014548510101Clb=7.4m/s t=-34.0C h=11.7% p=283.8hPa 405.301 MHz Type=RS41-SGP ser=U3140149 Radiosonde
PU2PAGU31401492022-12-06 12:28:44-23.4822-46.5014558510101Clb=7.4m/s p=283.8hPa t=-34.0C h=11.7% 405.300MHz Type=RS41-SGP rdzTTGOsonde
PU2PAGU31401492022-12-06 12:28:17-23.4842-46.5029488010013Clb=5.8m/s p=287.3hPa t=-33.2C h=10.3% 405.300MHz Type=RS41-SGP rdzTTGOsonde
PU2PAGU31401492022-12-06 12:27:48-23.4862-46.504533709922Clb=7.6m/s p=291.0hPa t=-32.5C h=8.6% 405.300MHz Type=RS41-SGP rdzTTGOsonde
PY2PE-11U31401492022-12-06 12:27:37-23.4871-46.505432919883Clb=6.8m/s t=-32.2C h=8.0% p=292.6hPa 405.301 MHz Type=RS41-SGP ser=U3140149 Radiosonde
PU2PAGU31401492022-12-06 12:27:09-23.4888-46.506725599793Clb=9.3m/s p=296.2hPa t=-31.5C h=7.7% 405.300MHz Type=RS41-SGP rdzTTGOsonde
PU2PAGU31401492022-12-06 12:26:40-23.4908-46.508561599683Clb=9.0m/s p=300.8hPa t=-30.9C h=13.8% 405.300MHz Type=RS41-SGP rdzTTGOsonde
PY2PE-11U31401492022-12-06 12:26:33-23.4912-46.50939659658Clb=6.0m/s t=-30.9C h=24.6% p=301.9hPa 405.301 MHz Type=RS41-SGP ser=U3140149 Radiosonde
PU2MUS-12U31401492022-12-06 12:20:00-23.4917-46.509539419608Clb=9.4m/s t=-30.6C h=37.1% p=304.0hPa 405.301 MHz Type=RS41-SGP ser=U3140149 Radiosonde
PU2MUS-12U31401492022-12-06 12:18:58-23.4963-46.516255309158Clb=8.0m/s t=-26.8C h=43.2% p=323.8hPa 405.301 MHz Type=RS41-SGP ser=U3140149 Radiosonde
PU2MUS-12U31401492022-12-06 12:17:56-23.4997-46.521669448725Clb=6.0m/s t=-23.7C h=49.0% p=343.8hPa 405.301 MHz Type=RS41-SGP ser=U3140149 Radiosonde
PU2MUS-12U31401492022-12-06 12:16:54-23.5024-46.52729208268Clb=7.9m/s t=-20.6C h=78.2% p=365.4hPa 405.301 MHz Type=RS41-SGP ser=U3140149 Radiosonde
PY2PE-11U31401492022-12-06 12:16:05-23.505-46.530336317878Clb=7.7m/s t=-17.8C h=75.8% p=385.1hPa 405.301 MHz Type=RS41-SGP ser=U3140149 Radiosonde
PU2PAGU31401492022-12-06 12:16:00-23.5052-46.530678307852Clb=6.8m/s p=386.4hPa t=-17.7C h=72.3% 405.300MHz Type=RS41-SGP rdzTTGOsonde
PU2MUS-12U31401492022-12-06 12:15:52-23.5052-46.530676397846Clb=6.1m/s t=-17.6C h=69.5% p=386.8hPa 405.301 MHz Type=RS41-SGP ser=U3140149 Radiosonde
PU2MUS-12U31401492022-12-06 12:15:20-23.5063-46.533455397640Clb=4.2m/s t=-16.8C h=-1.0% p=397.6hPa 405.301 MHz Type=RS41-SGP ser=U3140149 Radiosonde
PU2MUS-12U31401492022-12-06 12:14:18-23.5077-46.539271307202Clb=5.9m/s t=-273.0C h=-1.0% p=-1.0hPa 405.301 MHz Type=RS41-SGP ser=U3140149 Radiosonde
PU2PAGU31401492022-12-06 12:13:55-23.5137-46.553262376183Clb=6.8m/s p=480.6hPa t=-8.0C h=99.5% 405.300MHz Type=RS41-SGP rdzTTGOsonde
PY2PE-11U31401492022-12-06 12:13:44-23.514-46.553872336130Clb=6.6m/s t=-7.7C h=99.4% p=483.9hPa 405.301 MHz Type=RS41-SGP ser=U3140149 Radiosonde
PU2MUS-12U31401492022-12-06 12:12:14-23.514-46.55471416123Clb=7.3m/s t=-273.0C h=-1.0% p=-1.0hPa 405.301 MHz Type=RS41-SGP ser=U3140149 Radiosonde
PU2PAGU31401492022-12-06 12:12:07-23.5163-46.557763355864Clb=6.6m/s p=500.8hPa t=-5.8C h=90.0% 405.300MHz Type=RS41-SGP rdzTTGOsonde
PU2PAGU31401492022-12-06 12:11:37-23.5171-46.558939355772Clb=6.0m/s p=506.7hPa t=-5.5C h=96.9% 405.300MHz Type=RS41-SGP rdzTTGOsonde
PY2PE-11U31401492022-12-06 12:11:20-23.5174-46.559767465717Clb=6.2m/s t=-5.2C h=96.8% p=510.2hPa 405.301 MHz Type=RS41-SGP ser=U3140149 Radiosonde
PU2PAGU31401492022-12-06 12:11:10-23.5177-46.560150485694Clb=9.0m/s p=511.8hPa t=-5.1C h=97.4% 405.300MHz Type=RS41-SGP rdzTTGOsonde
PU2PAGU31401492022-12-06 12:10:44-23.5182-46.561381435612Clb=7.4m/s p=517.2hPa t=-4.6C h=95.6% 405.300MHz Type=RS41-SGP rdzTTGOsonde
PY2PE-11U31401492022-12-06 12:09:45-23.5196-46.6294127441366Clb=9.4m/s t=17.3C h=96.9% p=864.6hPa 405.301 MHz Type=RS41-SGP ser=U3140149 Radiosonde
PY2PE-11U31401492022-12-06 12:08:22-23.5175-46.6318137311200Clb=4.9m/s t=18.4C h=95.0% p=881.2hPa 405.301 MHz Type=RS41-SGP ser=U3140149 Radiosonde
PY2PE-11U31401492022-12-06 12:07:02-23.5149-46.6332149441067Clb=3.5m/s t=19.3C h=-1.0% p=895.1hPa 405.301 MHz Type=RS41-SGP ser=U3140149 Radiosonde
PY2PE-11U31401492022-12-06 12:05:52-23.5128-46.634613619930Clb=4.9m/s t=-273.0C h=-1.0% p=-1.0hPa 405.301 MHz Type=RS41-SGP ser=U3140149 Radiosonde